createdAt,value
2023-03-02T00:01:03.841Z,102211.59
2023-03-02T00:03:33.506Z,102211.66
2023-03-02T00:06:01.963Z,102213.44
2023-03-02T00:08:29.968Z,102223.19
2023-03-02T00:11:00.883Z,102223.94
2023-03-02T00:13:31.163Z,102230.84
2023-03-02T00:16:00.252Z,102228.97
2023-03-02T00:18:28.051Z,102230.78
2023-03-02T00:20:55.811Z,102226.47
2023-03-02T00:23:23.486Z,102230.84
2023-03-02T00:25:51.226Z,102218.53
2023-03-02T00:28:18.913Z,102224.56
2023-03-02T00:30:46.776Z,102221.75
2023-03-02T00:33:16.170Z,102221.66
2023-03-02T00:35:43.879Z,102214.56
2023-03-02T00:38:11.608Z,102223.44
2023-03-02T00:40:39.337Z,102216.31
2023-03-02T00:43:07.045Z,102212.84
2023-03-02T00:45:34.755Z,102210.09
2023-03-02T00:48:02.421Z,102205.63
2023-03-02T00:50:31.576Z,102203.69
2023-03-02T00:52:59.262Z,102199.22
2023-03-02T00:55:26.941Z,102197.34
2023-03-02T00:57:55.904Z,102199.16
2023-03-02T01:00:24.372Z,102197.44
2023-03-02T01:02:52.247Z,102201.59
2023-03-02T01:05:20.071Z,102193.75
2023-03-02T01:07:49.682Z,102192.72
2023-03-02T01:10:17.826Z,102204.25
2023-03-02T01:12:45.522Z,102201.53
2023-03-02T01:15:13.858Z,102199.59
2023-03-02T01:17:42.912Z,102199.44
2023-03-02T01:20:11.985Z,102204.66
2023-03-02T01:22:39.663Z,102202.78
2023-03-02T01:25:09.174Z,102201.88
2023-03-02T01:27:36.874Z,102205.34
2023-03-02T01:30:05.286Z,102202.50
2023-03-02T01:32:33.140Z,102202.44
2023-03-02T01:35:00.885Z,102204.91
2023-03-02T01:37:28.681Z,102198.47
2023-03-02T01:39:56.440Z,102199.28
2023-03-02T01:42:25.595Z,102201.72
2023-03-02T01:44:57.084Z,102194.00
2023-03-02T01:47:27.927Z,102195.63
2023-03-02T01:49:59.965Z,102187.69
2023-03-02T01:52:28.492Z,102186.56
2023-03-02T01:55:00.072Z,102182.97
2023-03-02T01:57:33.912Z,102191.78
2023-03-02T02:00:08.436Z,102188.00
2023-03-02T02:02:36.922Z,102184.56
2023-03-02T02:05:05.556Z,102185.22
2023-03-02T02:07:33.277Z,102175.28
2023-03-02T02:10:01.798Z,102172.44
2023-03-02T02:12:31.186Z,102164.41
2023-03-02T02:15:00.800Z,102169.59
2023-03-02T02:17:30.273Z,102164.06
2023-03-02T02:20:08.950Z,102170.91
2023-03-02T02:22:49.075Z,102170.81
2023-03-02T02:25:27.003Z,102166.38
2023-03-02T02:27:57.461Z,102166.50
2023-03-02T02:30:26.426Z,102158.53
2023-03-02T02:32:56.409Z,102163.53
2023-03-02T02:35:28.374Z,102162.69
2023-03-02T02:37:59.456Z,102159.06
2023-03-02T02:40:46.403Z,102153.09
2023-03-02T02:43:20.490Z,102138.97
2023-03-02T02:45:50.213Z,102146.78
2023-03-02T02:48:20.444Z,102149.81
2023-03-02T02:50:48.626Z,102148.09
2023-03-02T02:53:20.635Z,102149.81
2023-03-02T02:55:50.647Z,102150.72
2023-03-02T02:58:29.381Z,102148.97
2023-03-02T03:00:57.156Z,102142.03
2023-03-02T03:03:30.990Z,102145.53
2023-03-02T03:06:00.170Z,102148.91
2023-03-02T03:08:55.777Z,102146.34
2023-03-02T03:11:26.431Z,102147.16
2023-03-02T03:14:06.390Z,102154.03
2023-03-02T03:16:35.451Z,102148.78
2023-03-02T03:19:09.295Z,102150.56
2023-03-02T03:21:37.290Z,102155.00
2023-03-02T03:24:05.436Z,102150.56
2023-03-02T03:26:33.520Z,102149.81
2023-03-02T03:29:03.801Z,102158.63
2023-03-02T03:31:31.476Z,102156.81
2023-03-02T03:34:01.056Z,102148.97
2023-03-02T03:36:29.844Z,102148.91
2023-03-02T03:38:58.330Z,102153.19
2023-03-02T03:41:26.430Z,102152.16
2023-03-02T03:43:54.438Z,102149.53
2023-03-02T03:46:23.680Z,102146.81
2023-03-02T03:48:51.481Z,102148.56
2023-03-02T03:51:19.451Z,102148.69
2023-03-02T03:53:57.249Z,102145.91
2023-03-02T03:56:24.960Z,102152.91
2023-03-02T03:58:53.993Z,102154.72
2023-03-02T04:01:23.360Z,102151.00
2023-03-02T04:03:51.127Z,102151.88
2023-03-02T04:06:19.270Z,102150.88
2023-03-02T04:08:46.973Z,102149.91
2023-03-02T04:11:14.691Z,102152.47
2023-03-02T04:13:42.432Z,102145.31
2023-03-02T04:16:10.224Z,102146.94
2023-03-02T04:18:39.351Z,102148.75
2023-03-02T04:21:07.124Z,102148.84
2023-03-02T04:23:34.800Z,102148.69
2023-03-02T04:26:05.054Z,102152.22
2023-03-02T04:28:33.101Z,102146.06
2023-03-02T04:31:01.005Z,102143.13
2023-03-02T04:33:28.803Z,102139.56
2023-03-02T04:35:58.088Z,102140.16
2023-03-02T04:38:29.675Z,102140.09
2023-03-02T04:40:58.198Z,102137.72
2023-03-02T04:43:26.618Z,102141.84
2023-03-02T04:45:55.336Z,102145.28
2023-03-02T04:48:23.499Z,102149.66
2023-03-02T04:50:51.212Z,102144.53
2023-03-02T04:53:20.308Z,102142.91
2023-03-02T04:55:48.519Z,102136.50
2023-03-02T04:58:16.330Z,102139.88
2023-03-02T05:00:44.068Z,102132.19
2023-03-02T05:03:11.900Z,102141.03
2023-03-02T05:05:39.756Z,102136.63
2023-03-02T05:08:07.511Z,102144.63
2023-03-02T05:10:36.600Z,102142.00
2023-03-02T05:13:05.759Z,102145.53
2023-03-02T05:15:36.310Z,102140.28
2023-03-02T05:18:05.842Z,102144.69
2023-03-02T05:20:34.382Z,102145.44
2023-03-02T05:23:05.146Z,102139.34
2023-03-02T05:25:34.657Z,102145.38
2023-03-02T05:28:04.486Z,102139.22
2023-03-02T05:30:37.400Z,102147.94
2023-03-02T05:33:05.315Z,102149.59
2023-03-02T05:35:33.092Z,102145.22
2023-03-02T05:38:00.820Z,102143.50
2023-03-02T05:40:28.573Z,102147.78
2023-03-02T05:42:56.343Z,102150.28
2023-03-02T05:45:28.178Z,102145.75
2023-03-02T05:47:56.479Z,102148.38
2023-03-02T05:50:24.875Z,102140.25
2023-03-02T05:52:52.638Z,102139.44
2023-03-02T05:55:21.036Z,102142.81
2023-03-02T05:57:49.724Z,102136.53
2023-03-02T06:00:18.905Z,102133.75
2023-03-02T06:02:48.807Z,102139.88
2023-03-02T06:05:18.921Z,102128.50
2023-03-02T06:07:47.050Z,102141.28
2023-03-02T06:10:15.441Z,102136.84
2023-03-02T06:12:43.356Z,102134.34
2023-03-02T06:15:11.419Z,102128.28
2023-03-02T06:17:39.414Z,102139.69
2023-03-02T06:20:10.886Z,102139.09
2023-03-02T06:22:41.113Z,102146.19
2023-03-02T06:25:10.105Z,102142.19
2023-03-02T06:27:41.577Z,102139.41
2023-03-02T06:30:14.211Z,102144.81
2023-03-02T06:32:42.352Z,102149.41
2023-03-02T06:35:13.150Z,102158.31
2023-03-02T06:37:44.073Z,102163.66
2023-03-02T06:40:13.953Z,102160.53
2023-03-02T06:42:43.074Z,102162.88
2023-03-02T06:45:12.267Z,102156.88
2023-03-02T06:47:40.122Z,102152.41
2023-03-02T06:50:08.502Z,102155.94
2023-03-02T06:52:40.454Z,102153.66
2023-03-02T06:55:09.197Z,102156.28
2023-03-02T06:57:37.138Z,102149.28
2023-03-02T07:00:09.999Z,102157.53
2023-03-02T07:02:38.455Z,102151.69
2023-03-02T07:05:07.444Z,102152.75
2023-03-02T07:07:35.225Z,102151.94
2023-03-02T07:10:04.944Z,102150.19
2023-03-02T07:12:32.675Z,102143.44
2023-03-02T07:15:00.459Z,102149.91
2023-03-02T07:17:28.198Z,102150.72
2023-03-02T07:19:55.858Z,102151.72
2023-03-02T07:22:23.553Z,102147.59
2023-03-02T07:24:51.236Z,102150.44
2023-03-02T07:27:20.347Z,102157.00
2023-03-02T07:29:48.131Z,102148.44
2023-03-02T07:32:15.919Z,102148.69
2023-03-02T07:34:43.674Z,102156.28
2023-03-02T07:37:11.428Z,102156.59
2023-03-02T07:39:39.153Z,102150.94
2023-03-02T07:42:08.861Z,102153.94
2023-03-02T07:44:38.047Z,102150.59
2023-03-02T07:47:06.055Z,102148.13
2023-03-02T07:49:35.332Z,102154.53
2023-03-02T07:52:03.078Z,102154.66
2023-03-02T07:54:30.906Z,102152.31
2023-03-02T07:56:59.143Z,102154.47
2023-03-02T07:59:28.369Z,102157.97
2023-03-02T08:01:58.218Z,102156.59
2023-03-02T08:04:26.881Z,102162.06
2023-03-02T08:06:54.626Z,102151.72
2023-03-02T08:09:22.347Z,102159.41
2023-03-02T08:11:50.584Z,102158.66
2023-03-02T08:14:18.373Z,102171.16
2023-03-02T08:16:46.088Z,102167.69
2023-03-02T08:19:15.210Z,102160.78
2023-03-02T08:21:43.666Z,102161.28
2023-03-02T08:24:11.850Z,102160.03
2023-03-02T08:26:39.951Z,102158.75
2023-03-02T08:29:08.126Z,102155.47
2023-03-02T08:31:36.205Z,102154.69
2023-03-02T08:34:04.186Z,102160.38
2023-03-02T08:36:33.496Z,102163.28
2023-03-02T08:39:01.333Z,102161.09
2023-03-02T08:41:29.128Z,102156.13
2023-03-02T08:43:57.189Z,102152.06
2023-03-02T08:46:24.868Z,102151.53
2023-03-02T08:48:52.697Z,102152.03
2023-03-02T08:51:23.022Z,102145.34
2023-03-02T08:53:55.107Z,102144.91
2023-03-02T08:56:25.352Z,102141.72
2023-03-02T08:58:54.701Z,102141.09
2023-03-02T09:01:25.073Z,102135.22
2023-03-02T09:03:53.579Z,102138.03
2023-03-02T09:06:21.735Z,102138.31
2023-03-02T09:08:50.199Z,102133.44
2023-03-02T09:11:19.469Z,102131.78
2023-03-02T09:13:47.145Z,102128.53
2023-03-02T09:16:15.869Z,102125.03
2023-03-02T09:18:43.656Z,102136.75
2023-03-02T09:21:14.770Z,102142.22
2023-03-02T09:23:42.848Z,102139.78
2023-03-02T09:26:10.610Z,102135.63
2023-03-02T09:28:39.855Z,102133.38
2023-03-02T09:31:09.485Z,102129.28
2023-03-02T09:33:37.243Z,102122.50
2023-03-02T09:36:07.796Z,102124.53
2023-03-02T09:38:35.502Z,102134.16
2023-03-02T09:41:37.871Z,102121.91
2023-03-02T09:44:20.569Z,102127.44
2023-03-02T09:46:50.754Z,102130.03
2023-03-02T09:49:29.527Z,102133.81
2023-03-02T09:52:11.579Z,102128.75
2023-03-02T09:54:41.185Z,102123.63
2023-03-02T09:57:22.150Z,102124.06
2023-03-02T10:00:03.754Z,102126.09
2023-03-02T10:02:38.500Z,102120.97
2023-03-02T10:05:14.403Z,102121.91
2023-03-02T10:07:42.192Z,102119.50
2023-03-02T10:10:22.651Z,102120.66
2023-03-02T10:13:02.100Z,102118.16
2023-03-02T10:15:35.670Z,102123.59
2023-03-02T10:18:14.719Z,102118.41
2023-03-02T10:20:49.557Z,102121.31
2023-03-02T10:23:37.488Z,102122.34
2023-03-02T10:26:16.638Z,102114.59
2023-03-02T10:28:49.660Z,102114.81
2023-03-02T10:31:25.866Z,102118.50
2023-03-02T10:33:54.036Z,102125.72
2023-03-02T10:36:25.780Z,102115.25
2023-03-02T10:38:55.115Z,102117.06
2023-03-02T10:41:27.301Z,102111.94
2023-03-02T10:43:59.416Z,102102.94
2023-03-02T10:46:39.292Z,102104.84
2023-03-02T10:49:07.052Z,102103.28
2023-03-02T10:51:35.753Z,102094.69
2023-03-02T10:54:08.506Z,102096.66
2023-03-02T10:56:36.562Z,102103.09
2023-03-02T10:59:14.609Z,102097.03
2023-03-02T11:01:43.812Z,102099.75
2023-03-02T11:04:16.044Z,102101.69
2023-03-02T11:06:43.818Z,102099.88
2023-03-02T11:09:15.637Z,102094.75
2023-03-02T11:11:54.315Z,102100.22
2023-03-02T11:14:23.514Z,102092.19
2023-03-02T11:16:54.044Z,102085.31
2023-03-02T11:19:30.853Z,102091.81
2023-03-02T11:22:04.165Z,102086.41
2023-03-02T11:24:39.970Z,102083.97
2023-03-02T11:27:13.871Z,102084.09
2023-03-02T11:29:45.395Z,102077.09
2023-03-02T11:32:18.765Z,102073.59
2023-03-02T11:34:50.574Z,102074.44
2023-03-02T11:37:23.055Z,102078.03
2023-03-02T11:40:06.261Z,102078.22
2023-03-02T11:42:35.208Z,102077.66
2023-03-02T11:45:09.950Z,102069.88
2023-03-02T11:47:39.195Z,102070.94
2023-03-02T11:50:11.499Z,102064.84
2023-03-02T11:52:42.876Z,102061.31
2023-03-02T11:55:18.746Z,102059.59
2023-03-02T11:57:49.614Z,102054.44
2023-03-02T12:00:28.307Z,102055.47
2023-03-02T12:03:02.324Z,102052.84
2023-03-02T12:05:32.287Z,102044.88
2023-03-02T12:08:01.254Z,102047.75
2023-03-02T12:10:34.447Z,102039.91
2023-03-02T12:13:14.804Z,102040.06
2023-03-02T12:15:45.337Z,102045.59
2023-03-02T12:18:32.298Z,102041.25
2023-03-02T12:21:03.541Z,102037.69
2023-03-02T12:23:33.516Z,102034.31
2023-03-02T12:26:09.476Z,102033.44
2023-03-02T12:28:39.671Z,102023.84
2023-03-02T12:31:11.392Z,102028.31
2023-03-02T12:33:43.663Z,102021.19
2023-03-02T12:36:17.504Z,102023.16
2023-03-02T12:38:53.978Z,102023.19
2023-03-02T12:41:51.284Z,102009.88
2023-03-02T12:44:33.373Z,102008.03
2023-03-02T12:47:03.089Z,102002.00
2023-03-02T12:49:46.165Z,101989.59
2023-03-02T12:52:24.115Z,101991.47
2023-03-02T12:55:01.515Z,101988.75
2023-03-02T12:57:29.507Z,101973.72
2023-03-02T12:59:59.253Z,101979.13
2023-03-02T13:02:29.500Z,101981.88
2023-03-02T13:05:00.130Z,101972.16
2023-03-02T13:07:31.087Z,101978.41
2023-03-02T13:10:00.286Z,101965.09
2023-03-02T13:12:29.412Z,101964.19
2023-03-02T13:14:59.228Z,101961.66
2023-03-02T13:17:30.948Z,101973.19
2023-03-02T13:20:02.686Z,101947.38
2023-03-02T13:22:30.910Z,101958.16
2023-03-02T13:25:00.502Z,101958.25
2023-03-02T13:27:29.059Z,101946.75
2023-03-02T13:29:57.938Z,101945.94
2023-03-02T13:32:28.229Z,101954.91
2023-03-02T13:34:58.805Z,101957.56
2023-03-02T13:37:40.483Z,101951.38
2023-03-02T13:40:30.918Z,101954.13
2023-03-02T13:42:59.060Z,101951.38
2023-03-02T13:45:30.943Z,101952.34
2023-03-02T13:48:02.553Z,101955.09
2023-03-02T13:50:33.942Z,101947.16
2023-03-02T13:53:07.199Z,101949.91
2023-03-02T13:55:36.444Z,101942.81
2023-03-02T13:58:04.311Z,101942.00
2023-03-02T14:00:34.141Z,101952.72
2023-03-02T14:03:02.471Z,101949.97
2023-03-02T14:05:33.400Z,101951.00
2023-03-02T14:08:03.558Z,101943.75
2023-03-02T14:10:31.298Z,101937.47
2023-03-02T14:13:05.141Z,101932.16
2023-03-02T14:15:34.870Z,101930.47
2023-03-02T14:18:02.593Z,101921.59
2023-03-02T14:20:32.866Z,101912.75
2023-03-02T14:23:03.454Z,101928.81
2023-03-02T14:25:32.708Z,101921.66
2023-03-02T14:28:00.438Z,101919.94
2023-03-02T14:30:28.135Z,101919.94
2023-03-02T14:32:55.845Z,101918.97
2023-03-02T14:35:25.926Z,101913.59
2023-03-02T14:37:53.652Z,101908.28
2023-03-02T14:40:26.625Z,101906.50
2023-03-02T14:43:02.777Z,101911.81
2023-03-02T14:45:31.002Z,101903.81
2023-03-02T14:47:58.903Z,101907.41
2023-03-02T14:50:26.660Z,101903.84
2023-03-02T14:52:56.598Z,101903.94
2023-03-02T14:55:28.004Z,101908.47
2023-03-02T14:58:00.853Z,101903.03
2023-03-02T15:00:28.964Z,101904.81
2023-03-02T15:02:56.847Z,101902.09
2023-03-02T15:05:24.552Z,101903.91
2023-03-02T15:07:53.597Z,101900.34
2023-03-02T15:10:23.638Z,101900.28
2023-03-02T15:12:51.747Z,101901.16
2023-03-02T15:15:20.922Z,101900.25
2023-03-02T15:17:48.694Z,101902.00
2023-03-02T15:20:17.205Z,101884.22
2023-03-02T15:22:45.583Z,101890.34
2023-03-02T15:25:13.250Z,101887.72
2023-03-02T15:27:41.521Z,101897.53
2023-03-02T15:30:12.165Z,101894.88
2023-03-02T15:32:41.644Z,101891.25
2023-03-02T15:35:09.990Z,101889.44
2023-03-02T15:37:37.762Z,101886.72
2023-03-02T15:40:06.639Z,101888.53
2023-03-02T15:42:37.049Z,101900.91
2023-03-02T15:45:05.682Z,101892.09
2023-03-02T15:47:37.491Z,101884.03
2023-03-02T15:50:07.324Z,101886.66
2023-03-02T15:52:35.048Z,101876.84
2023-03-02T15:55:02.700Z,101895.50
2023-03-02T15:57:30.365Z,101892.84
2023-03-02T15:59:58.104Z,101893.69
2023-03-02T16:02:25.813Z,101886.56
2023-03-02T16:04:53.572Z,101896.34
2023-03-02T16:07:22.668Z,101898.97
2023-03-02T16:09:51.736Z,101897.22
2023-03-02T16:12:23.207Z,101901.50
2023-03-02T16:14:50.849Z,101900.53
2023-03-02T16:17:19.101Z,101897.84
2023-03-02T16:19:46.962Z,101908.44
2023-03-02T16:22:14.713Z,101907.53
2023-03-02T16:24:43.891Z,101911.84
2023-03-02T16:27:11.652Z,101907.34
2023-03-02T16:29:39.435Z,101910.78
2023-03-02T16:32:08.994Z,101904.53
2023-03-02T16:34:36.881Z,101907.09
2023-03-02T16:37:04.648Z,101910.69
2023-03-02T16:39:32.865Z,101915.88
2023-03-02T16:42:01.926Z,101912.34
2023-03-02T16:44:29.689Z,101912.34
2023-03-02T16:46:57.762Z,101909.53
2023-03-02T16:49:25.551Z,101920.06
2023-03-02T16:51:58.742Z,101920.91
2023-03-02T16:54:26.745Z,101922.53
2023-03-02T16:56:54.374Z,101925.16
2023-03-02T16:59:23.519Z,101926.81
2023-03-02T17:01:51.282Z,101929.38
2023-03-02T17:04:21.139Z,101934.66
2023-03-02T17:07:00.494Z,101931.03
2023-03-02T17:09:29.053Z,101926.31
2023-03-02T17:11:56.940Z,101938.81
2023-03-02T17:14:26.309Z,101937.72
2023-03-02T17:16:54.184Z,101935.78
2023-03-02T17:19:21.832Z,101941.94
2023-03-02T17:21:49.653Z,101944.50
2023-03-02T17:24:17.296Z,101952.44
2023-03-02T17:26:46.756Z,101956.63
2023-03-02T17:29:14.515Z,101965.22
2023-03-02T17:31:43.975Z,101971.41
2023-03-02T17:34:12.331Z,101974.53
2023-03-02T17:36:43.093Z,101982.06
2023-03-02T17:39:10.768Z,101988.28
2023-03-02T17:41:38.592Z,101989.09
2023-03-02T17:44:06.731Z,101989.56
2023-03-02T17:46:34.505Z,101994.94
2023-03-02T17:49:04.101Z,101994.81
2023-03-02T17:51:31.939Z,102002.75
2023-03-02T17:53:59.675Z,102000.66
2023-03-02T17:56:28.818Z,102007.63
2023-03-02T17:58:57.996Z,102010.34
2023-03-02T18:01:26.166Z,102022.84
2023-03-02T18:03:54.072Z,102022.63
2023-03-02T18:06:23.255Z,102021.34
2023-03-02T18:08:54.610Z,102020.34
2023-03-02T18:11:24.383Z,102015.66
2023-03-02T18:13:54.728Z,102032.31
2023-03-02T18:16:22.859Z,102028.31
2023-03-02T18:18:57.230Z,102034.63
2023-03-02T18:21:26.552Z,102048.78
2023-03-02T18:23:54.345Z,102044.09
2023-03-02T18:26:22.447Z,102045.81
2023-03-02T18:28:50.132Z,102055.38
2023-03-02T18:31:20.101Z,102059.72
2023-03-02T18:33:49.711Z,102062.13
2023-03-02T18:36:17.693Z,102064.66
2023-03-02T18:38:46.868Z,102068.13
2023-03-02T18:41:15.163Z,102071.44
2023-03-02T18:43:43.462Z,102075.81
2023-03-02T18:46:19.854Z,102081.09
2023-03-02T18:48:49.648Z,102081.88
2023-03-02T18:51:17.972Z,102083.31
2023-03-02T18:53:47.760Z,102079.38
2023-03-02T18:56:15.934Z,102084.56
2023-03-02T18:58:43.750Z,102097.09
2023-03-02T19:01:12.681Z,102098.94
2023-03-02T19:03:41.937Z,102091.94
2023-03-02T19:06:09.850Z,102097.81
2023-03-02T19:08:37.685Z,102100.94
2023-03-02T19:11:07.546Z,102098.19
2023-03-02T19:13:35.473Z,102097.25
2023-03-02T19:16:03.839Z,102095.44
2023-03-02T19:18:32.052Z,102099.81
2023-03-02T19:21:00.647Z,102097.06
2023-03-02T19:23:28.759Z,102106.78
2023-03-02T19:25:56.656Z,102113.88
2023-03-02T19:28:26.191Z,102111.88
2023-03-02T19:30:54.028Z,102116.38
2023-03-02T19:33:24.929Z,102118.84
2023-03-02T19:35:53.048Z,102129.16
2023-03-02T19:38:22.635Z,102121.00
2023-03-02T19:40:50.677Z,102134.16
2023-03-02T19:43:20.511Z,102134.91
2023-03-02T19:45:55.814Z,102131.06
2023-03-02T19:48:23.708Z,102125.72
2023-03-02T19:50:52.817Z,102130.75
2023-03-02T19:53:20.752Z,102126.25
2023-03-02T19:55:48.617Z,102128.84
2023-03-02T19:58:19.011Z,102126.94
2023-03-02T20:00:51.474Z,102125.06
2023-03-02T20:03:19.278Z,102131.34
2023-03-02T20:05:47.104Z,102128.50
2023-03-02T20:08:16.714Z,102131.03
2023-03-02T20:10:46.493Z,102132.66
2023-03-02T20:13:14.274Z,102141.28
2023-03-02T20:15:44.503Z,102140.34
2023-03-02T20:18:16.390Z,102130.44
2023-03-02T20:20:45.307Z,102132.09
2023-03-02T20:23:13.396Z,102150.56
2023-03-02T20:25:41.643Z,102147.81
2023-03-02T20:28:11.883Z,102153.78
2023-03-02T20:30:44.707Z,102155.34
2023-03-02T20:33:15.249Z,102166.66
2023-03-02T20:35:45.459Z,102169.34
2023-03-02T20:38:18.962Z,102164.66
2023-03-02T20:40:46.906Z,102167.03
2023-03-02T20:43:14.912Z,102163.94
2023-03-02T20:45:45.926Z,102156.81
2023-03-02T20:48:15.254Z,102159.19
2023-03-02T20:50:43.532Z,102154.78
2023-03-02T20:53:11.931Z,102159.56
2023-03-02T20:55:40.017Z,102164.78
2023-03-02T20:58:07.752Z,102166.34
2023-03-02T21:00:36.961Z,102169.63
2023-03-02T21:03:05.899Z,102168.63
2023-03-02T21:05:37.500Z,102166.88
2023-03-02T21:08:05.769Z,102175.56
2023-03-02T21:10:36.474Z,102170.09
2023-03-02T21:13:05.786Z,102172.44
2023-03-02T21:15:34.065Z,102166.94
2023-03-02T21:18:02.428Z,102161.47
2023-03-02T21:20:33.022Z,102172.75
2023-03-02T21:23:02.941Z,102162.00
2023-03-02T21:25:30.657Z,102175.03
2023-03-02T21:27:58.794Z,102165.34
2023-03-02T21:30:29.108Z,102165.09
2023-03-02T21:32:57.342Z,102161.22
2023-03-02T21:35:25.348Z,102159.28
2023-03-02T21:37:57.276Z,102156.38
2023-03-02T21:40:32.280Z,102154.69
2023-03-02T21:43:00.372Z,102154.69
2023-03-02T21:45:28.898Z,102155.91
2023-03-02T21:47:56.650Z,102158.59
2023-03-02T21:50:27.241Z,102150.59
2023-03-02T21:52:56.001Z,102150.59
2023-03-02T21:55:23.702Z,102147.47
2023-03-02T21:57:52.862Z,102149.84
2023-03-02T22:00:23.831Z,102154.00
2023-03-02T22:02:51.837Z,102153.25
2023-03-02T22:05:20.481Z,102163.03
2023-03-02T22:07:48.692Z,102155.13
2023-03-02T22:10:27.666Z,102160.19
2023-03-02T22:13:05.491Z,102152.22
2023-03-02T22:15:33.134Z,102155.00
2023-03-02T22:18:00.816Z,102147.69
2023-03-02T22:20:29.718Z,102147.69
2023-03-02T22:22:58.481Z,102153.78
2023-03-02T22:25:26.451Z,102156.44
2023-03-02T22:27:55.051Z,102157.13
2023-03-02T22:30:24.994Z,102156.44
2023-03-02T22:32:52.718Z,102159.22
2023-03-02T22:35:23.348Z,102166.50
2023-03-02T22:37:52.790Z,102164.91
2023-03-02T22:40:30.205Z,102171.38
2023-03-02T22:43:10.996Z,102166.03
2023-03-02T22:45:41.582Z,102161.44
2023-03-02T22:48:15.679Z,102161.44
2023-03-02T22:50:45.413Z,102166.59
2023-03-02T22:53:29.193Z,102164.16
2023-03-02T22:55:59.119Z,102163.03
2023-03-02T22:58:32.751Z,102164.22
2023-03-02T23:01:02.566Z,102164.63
2023-03-02T23:03:39.733Z,102168.16
2023-03-02T23:06:29.695Z,102167.91
2023-03-02T23:09:00.084Z,102174.63
2023-03-02T23:11:28.949Z,102171.28
2023-03-02T23:13:57.137Z,102171.44
2023-03-02T23:16:28.369Z,102179.63
2023-03-02T23:18:59.191Z,102163.78
2023-03-02T23:21:29.119Z,102161.28
2023-03-02T23:23:57.206Z,102166.69
2023-03-02T23:26:24.913Z,102157.56
2023-03-02T23:28:52.604Z,102163.53
2023-03-02T23:31:20.683Z,102164.28
2023-03-02T23:33:49.809Z,102160.75
2023-03-02T23:36:21.299Z,102169.22
2023-03-02T23:38:49.585Z,102168.09
2023-03-02T23:41:18.244Z,102170.31
2023-03-02T23:43:46.056Z,102173.97
2023-03-02T23:46:14.516Z,102167.00
2023-03-02T23:48:42.859Z,102179.22
2023-03-02T23:51:12.060Z,102169.84
2023-03-02T23:53:39.960Z,102165.53
2023-03-02T23:56:08.218Z,102162.66
2023-03-02T23:58:35.900Z,102165.13
